sensor_id;sensor_type;location;lat;lon;timestamp;pressure;altitude;pressure_sealevel;temperature;humidity
77603;BME280;66771;52.434;17.056;2023-04-01T00:01:29;98702.91;;;8.07;90.97
77603;BME280;66771;52.434;17.056;2023-04-01T00:03:56;98706.87;;;8.08;91.26
77603;BME280;66771;52.434;17.056;2023-04-01T00:06:23;98701.14;;;8.09;91.17
77603;BME280;66771;52.434;17.056;2023-04-01T00:08:50;98703.69;;;8.08;91.16
77603;BME280;66771;52.434;17.056;2023-04-01T00:11:17;98705.61;;;8.10;91.30
77603;BME280;66771;52.434;17.056;2023-04-01T00:13:45;98702.35;;;8.12;91.40
77603;BME280;66771;52.434;17.056;2023-04-01T00:16:12;98701.30;;;8.16;91.58
77603;BME280;66771;52.434;17.056;2023-04-01T00:18:39;98701.83;;;8.14;91.11
77603;BME280;66771;52.434;17.056;2023-04-01T00:21:07;98697.36;;;8.14;91.33
77603;BME280;66771;52.434;17.056;2023-04-01T00:23:34;98698.00;;;8.17;91.42
77603;BME280;66771;52.434;17.056;2023-04-01T00:26:02;98696.86;;;8.17;91.43
77603;BME280;66771;52.434;17.056;2023-04-01T00:28:29;98693.52;;;8.15;91.27
77603;BME280;66771;52.434;17.056;2023-04-01T00:30:56;98693.23;;;8.11;91.12
77603;BME280;66771;52.434;17.056;2023-04-01T00:33:23;98692.09;;;8.11;91.39
77603;BME280;66771;52.434;17.056;2023-04-01T00:35:51;98692.16;;;8.12;91.32
77603;BME280;66771;52.434;17.056;2023-04-01T00:38:18;98691.23;;;8.16;91.63
77603;BME280;66771;52.434;17.056;2023-04-01T00:40:46;98692.21;;;8.17;91.40
77603;BME280;66771;52.434;17.056;2023-04-01T00:43:17;98690.61;;;8.17;91.46
77603;BME280;66771;52.434;17.056;2023-04-01T00:45:48;98692.23;;;8.18;91.63
77603;BME280;66771;52.434;17.056;2023-04-01T00:48:36;98687.86;;;8.19;91.60
77603;BME280;66771;52.434;17.056;2023-04-01T00:51:08;98691.39;;;8.21;91.61
77603;BME280;66771;52.434;17.056;2023-04-01T00:53:40;98677.07;;;8.16;91.65
77603;BME280;66771;52.434;17.056;2023-04-01T00:56:13;98685.16;;;8.23;91.71
77603;BME280;66771;52.434;17.056;2023-04-01T00:58:45;98685.36;;;8.23;91.63
77603;BME280;66771;52.434;17.056;2023-04-01T01:01:13;98683.57;;;8.22;91.61
77603;BME280;66771;52.434;17.056;2023-04-01T01:03:41;98682.02;;;8.22;91.58
77603;BME280;66771;52.434;17.056;2023-04-01T01:15:08;98672.95;;;8.18;91.35
77603;BME280;66771;52.434;17.056;2023-04-01T01:26:44;98673.52;;;8.21;91.63
77603;BME280;66771;52.434;17.056;2023-04-01T01:37:53;98672.37;;;8.20;91.34
77603;BME280;66771;52.434;17.056;2023-04-01T01:40:24;98671.51;;;8.21;91.64
77603;BME280;66771;52.434;17.056;2023-04-01T01:42:56;98675.33;;;8.23;91.66
77603;BME280;66771;52.434;17.056;2023-04-01T01:45:26;98673.80;;;8.22;91.38
77603;BME280;66771;52.434;17.056;2023-04-01T01:47:55;98666.24;;;8.19;91.63
77603;BME280;66771;52.434;17.056;2023-04-01T01:50:26;98669.34;;;8.26;91.52
77603;BME280;66771;52.434;17.056;2023-04-01T01:53:08;98672.88;;;8.28;91.76
77603;BME280;66771;52.434;17.056;2023-04-01T01:55:38;98669.65;;;8.30;91.66
77603;BME280;66771;52.434;17.056;2023-04-01T01:58:18;98672.06;;;8.31;91.66
77603;BME280;66771;52.434;17.056;2023-04-01T02:00:50;98672.00;;;8.30;91.60
77603;BME280;66771;52.434;17.056;2023-04-01T02:03:21;98666.02;;;8.27;91.54
77603;BME280;66771;52.434;17.056;2023-04-01T02:05:53;98671.73;;;8.23;91.41
77603;BME280;66771;52.434;17.056;2023-04-01T02:08:26;98672.86;;;8.19;91.45
77603;BME280;66771;52.434;17.056;2023-04-01T02:11:08;98669.02;;;8.18;91.58
77603;BME280;66771;52.434;17.056;2023-04-01T02:13:52;98664.98;;;8.13;91.44
77603;BME280;66771;52.434;17.056;2023-04-01T02:16:25;98669.68;;;8.17;91.55
77603;BME280;66771;52.434;17.056;2023-04-01T02:18:57;98669.86;;;8.15;91.47
77603;BME280;66771;52.434;17.056;2023-04-01T02:21:30;98665.91;;;8.13;91.54
77603;BME280;66771;52.434;17.056;2023-04-01T02:23:58;98666.48;;;8.15;91.79
77603;BME280;66771;52.434;17.056;2023-04-01T02:26:27;98664.31;;;8.15;91.72
77603;BME280;66771;52.434;17.056;2023-04-01T02:28:55;98668.25;;;8.13;91.59
77603;BME280;66771;52.434;17.056;2023-04-01T02:31:24;98662.27;;;8.14;91.64
77603;BME280;66771;52.434;17.056;2023-04-01T02:33:52;98663.77;;;8.15;91.67
77603;BME280;66771;52.434;17.056;2023-04-01T02:36:20;98661.14;;;8.14;91.72
77603;BME280;66771;52.434;17.056;2023-04-01T02:38:47;98662.60;;;8.14;91.62
77603;BME280;66771;52.434;17.056;2023-04-01T02:41:15;98664.26;;;8.12;91.66
77603;BME280;66771;52.434;17.056;2023-04-01T02:43:42;98666.84;;;8.13;91.70
77603;BME280;66771;52.434;17.056;2023-04-01T02:46:09;98665.70;;;8.13;91.57
77603;BME280;66771;52.434;17.056;2023-04-01T02:48:36;98666.68;;;8.13;91.49
77603;BME280;66771;52.434;17.056;2023-04-01T02:51:04;98668.17;;;8.14;91.87
77603;BME280;66771;52.434;17.056;2023-04-01T02:53:31;98673.55;;;8.17;91.88
77603;BME280;66771;52.434;17.056;2023-04-01T02:55:57;98672.81;;;8.21;92.05
77603;BME280;66771;52.434;17.056;2023-04-01T02:58:25;98676.56;;;8.23;91.99
77603;BME280;66771;52.434;17.056;2023-04-01T03:00:52;98677.78;;;8.23;91.89
77603;BME280;66771;52.434;17.056;2023-04-01T03:03:18;98677.47;;;8.23;91.99
77603;BME280;66771;52.434;17.056;2023-04-01T03:05:45;98680.30;;;8.23;91.95
77603;BME280;66771;52.434;17.056;2023-04-01T03:08:12;98680.25;;;8.22;91.81
77603;BME280;66771;52.434;17.056;2023-04-01T03:10:39;98677.68;;;8.21;91.72
77603;BME280;66771;52.434;17.056;2023-04-01T03:13:08;98678.29;;;8.15;91.60
77603;BME280;66771;52.434;17.056;2023-04-01T03:15:36;98685.08;;;8.15;91.85
77603;BME280;66771;52.434;17.056;2023-04-01T03:18:03;98686.27;;;8.14;91.74
77603;BME280;66771;52.434;17.056;2023-04-01T03:20:30;98682.80;;;8.11;91.60
77603;BME280;66771;52.434;17.056;2023-04-01T03:22:57;98683.20;;;8.11;91.84
77603;BME280;66771;52.434;17.056;2023-04-01T03:25:24;98682.77;;;8.11;91.68
77603;BME280;66771;52.434;17.056;2023-04-01T03:27:51;98677.80;;;8.09;91.45
77603;BME280;66771;52.434;17.056;2023-04-01T03:30:18;98679.71;;;8.10;91.81
77603;BME280;66771;52.434;17.056;2023-04-01T03:32:48;98681.10;;;8.13;91.89
77603;BME280;66771;52.434;17.056;2023-04-01T03:35:15;98683.83;;;8.15;91.80
77603;BME280;66771;52.434;17.056;2023-04-01T03:37:42;98674.96;;;8.12;91.90
77603;BME280;66771;52.434;17.056;2023-04-01T03:40:10;98680.88;;;8.19;91.96
77603;BME280;66771;52.434;17.056;2023-04-01T03:42:37;98683.26;;;8.21;91.92
77603;BME280;66771;52.434;17.056;2023-04-01T03:45:04;98684.71;;;8.22;92.03
77603;BME280;66771;52.434;17.056;2023-04-01T03:47:31;98683.91;;;8.21;92.04
77603;BME280;66771;52.434;17.056;2023-04-01T03:49:58;98684.88;;;8.22;92.03
77603;BME280;66771;52.434;17.056;2023-04-01T03:52:25;98681.34;;;8.18;91.84
77603;BME280;66771;52.434;17.056;2023-04-01T03:54:52;98689.86;;;8.23;91.94
77603;BME280;66771;52.434;17.056;2023-04-01T03:57:19;98682.28;;;8.20;92.11
77603;BME280;66771;52.434;17.056;2023-04-01T03:59:46;98691.86;;;8.24;92.06
77603;BME280;66771;52.434;17.056;2023-04-01T04:02:13;98695.23;;;8.25;92.13
77603;BME280;66771;52.434;17.056;2023-04-01T04:04:41;98701.09;;;8.23;92.00
77603;BME280;66771;52.434;17.056;2023-04-01T04:07:09;98700.21;;;8.23;92.03
77603;BME280;66771;52.434;17.056;2023-04-01T04:09:56;98701.48;;;8.21;92.07
77603;BME280;66771;52.434;17.056;2023-04-01T04:12:23;98707.56;;;8.19;91.95
77603;BME280;66771;52.434;17.056;2023-04-01T04:14:49;98708.76;;;8.20;92.04
77603;BME280;66771;52.434;17.056;2023-04-01T04:17:16;98707.01;;;8.18;92.04
77603;BME280;66771;52.434;17.056;2023-04-01T04:19:44;98709.94;;;8.13;92.00
77603;BME280;66771;52.434;17.056;2023-04-01T04:22:11;98709.84;;;8.13;92.09
77603;BME280;66771;52.434;17.056;2023-04-01T04:24:38;98711.52;;;8.12;92.02
77603;BME280;66771;52.434;17.056;2023-04-01T04:27:11;98706.43;;;8.05;92.08
77603;BME280;66771;52.434;17.056;2023-04-01T04:29:45;98709.73;;;8.03;92.03
77603;BME280;66771;52.434;17.056;2023-04-01T04:32:12;98721.27;;;8.06;92.03
77603;BME280;66771;52.434;17.056;2023-04-01T04:34:39;98722.67;;;8.04;92.20
77603;BME280;66771;52.434;17.056;2023-04-01T04:37:06;98723.20;;;8.01;91.95
77603;BME280;66771;52.434;17.056;2023-04-01T04:39:36;98725.92;;;7.98;91.94
77603;BME280;66771;52.434;17.056;2023-04-01T04:42:03;98724.11;;;7.95;92.05
77603;BME280;66771;52.434;17.056;2023-04-01T04:44:30;98725.04;;;7.95;92.06
77603;BME280;66771;52.434;17.056;2023-04-01T04:46:57;98722.30;;;7.93;91.92
77603;BME280;66771;52.434;17.056;2023-04-01T04:49:24;98724.45;;;7.93;91.90
77603;BME280;66771;52.434;17.056;2023-04-01T04:51:51;98726.86;;;7.93;91.94
77603;BME280;66771;52.434;17.056;2023-04-01T04:54:20;98727.89;;;7.91;91.94
77603;BME280;66771;52.434;17.056;2023-04-01T04:56:55;98734.24;;;7.92;91.92
77603;BME280;66771;52.434;17.056;2023-04-01T04:59:23;98734.88;;;7.95;92.17
77603;BME280;66771;52.434;17.056;2023-04-01T05:02:05;98739.38;;;8.00;92.14
77603;BME280;66771;52.434;17.056;2023-04-01T05:04:36;98739.70;;;8.04;92.18
77603;BME280;66771;52.434;17.056;2023-04-01T05:07:05;98739.69;;;8.10;92.23
77603;BME280;66771;52.434;17.056;2023-04-01T05:09:32;98741.77;;;8.12;92.16
77603;BME280;66771;52.434;17.056;2023-04-01T05:12:00;98742.70;;;8.14;92.01
77603;BME280;66771;52.434;17.056;2023-04-01T05:14:32;98731.55;;;8.08;92.01
77603;BME280;66771;52.434;17.056;2023-04-01T05:17:11;98744.39;;;8.18;92.06
77603;BME280;66771;52.434;17.056;2023-04-01T05:19:39;98744.08;;;8.19;91.87
77603;BME280;66771;52.434;17.056;2023-04-01T05:22:06;98744.63;;;8.23;92.03
77603;BME280;66771;52.434;17.056;2023-04-01T05:24:38;98748.58;;;8.25;91.87
77603;BME280;66771;52.434;17.056;2023-04-01T05:27:05;98751.19;;;8.30;92.31
77603;BME280;66771;52.434;17.056;2023-04-01T05:29:34;98750.98;;;8.32;92.15
77603;BME280;66771;52.434;17.056;2023-04-01T05:32:05;98751.58;;;8.35;92.15
77603;BME280;66771;52.434;17.056;2023-04-01T05:34:35;98725.28;;;8.20;92.19
77603;BME280;66771;52.434;17.056;2023-04-01T05:37:07;98754.75;;;8.37;92.11
77603;BME280;66771;52.434;17.056;2023-04-01T05:39:38;98755.93;;;8.38;91.84
77603;BME280;66771;52.434;17.056;2023-04-01T05:42:06;98756.95;;;8.39;91.88
77603;BME280;66771;52.434;17.056;2023-04-01T05:44:35;98761.16;;;8.42;91.88
77603;BME280;66771;52.434;17.056;2023-04-01T05:47:03;98761.12;;;8.44;91.88
77603;BME280;66771;52.434;17.056;2023-04-01T05:49:31;98764.96;;;8.43;91.69
77603;BME280;66771;52.434;17.056;2023-04-01T05:51:58;98767.80;;;8.43;91.77
77603;BME280;66771;52.434;17.056;2023-04-01T05:54:26;98765.06;;;8.46;91.89
77603;BME280;66771;52.434;17.056;2023-04-01T05:56:53;98769.22;;;8.47;91.89
77603;BME280;66771;52.434;17.056;2023-04-01T05:59:20;98769.41;;;8.47;91.80
77603;BME280;66771;52.434;17.056;2023-04-01T06:01:47;98764.56;;;8.45;91.69
77603;BME280;66771;52.434;17.056;2023-04-01T06:04:17;98769.23;;;8.43;91.70
77603;BME280;66771;52.434;17.056;2023-04-01T06:06:45;98768.83;;;8.45;91.93
77603;BME280;66771;52.434;17.056;2023-04-01T06:09:16;98774.00;;;8.46;91.71
77603;BME280;66771;52.434;17.056;2023-04-01T06:40:05;98800.52;;;8.71;91.56
77603;BME280;66771;52.434;17.056;2023-04-01T06:49:34;98805.83;;;8.72;91.57
77603;BME280;66771;52.434;17.056;2023-04-01T06:52:43;98768.83;;;8.60;91.72
77603;BME280;66771;52.434;17.056;2023-04-01T06:59:17;98811.41;;;8.96;91.71
77603;BME280;66771;52.434;17.056;2023-04-01T07:04:43;98814.27;;;9.02;91.88
77603;BME280;66771;52.434;17.056;2023-04-01T07:10:33;98818.80;;;9.04;91.66
77603;BME280;66771;52.434;17.056;2023-04-01T07:13:29;98820.57;;;9.04;91.97
77603;BME280;66771;52.434;17.056;2023-04-01T07:16:18;98825.60;;;9.09;91.91
77603;BME280;66771;52.434;17.056;2023-04-01T07:19:03;98826.63;;;9.15;91.97
77603;BME280;66771;52.434;17.056;2023-04-01T07:21:48;98822.65;;;9.16;91.75
77603;BME280;66771;52.434;17.056;2023-04-01T07:24:44;98827.25;;;9.22;91.69
77603;BME280;66771;52.434;17.056;2023-04-01T07:27:13;98833.84;;;9.20;91.56
77603;BME280;66771;52.434;17.056;2023-04-01T07:29:44;98837.70;;;9.24;91.56
77603;BME280;66771;52.434;17.056;2023-04-01T07:32:47;98832.88;;;9.37;91.78
77603;BME280;66771;52.434;17.056;2023-04-01T07:35:31;98834.37;;;9.47;91.34
77603;BME280;66771;52.434;17.056;2023-04-01T07:44:35;98840.63;;;9.69;91.29
77603;BME280;66771;52.434;17.056;2023-04-01T07:52:36;98855.98;;;9.99;91.01
77603;BME280;66771;52.434;17.056;2023-04-01T07:55:27;98858.27;;;9.91;90.16
77603;BME280;66771;52.434;17.056;2023-04-01T08:15:21;98876.59;;;9.78;89.93
77603;BME280;66771;52.434;17.056;2023-04-01T08:18:27;98883.89;;;9.72;89.88
77603;BME280;66771;52.434;17.056;2023-04-01T08:21:04;98892.64;;;9.50;89.64
77603;BME280;66771;52.434;17.056;2023-04-01T08:23:36;98892.61;;;9.50;90.22
77603;BME280;66771;52.434;17.056;2023-04-01T08:29:06;98898.96;;;9.38;90.63
77603;BME280;66771;52.434;17.056;2023-04-01T08:31:40;98902.55;;;9.28;91.38
77603;BME280;66771;52.434;17.056;2023-04-01T08:34:20;98908.07;;;9.21;91.24
77603;BME280;66771;52.434;17.056;2023-04-01T08:36:52;98901.40;;;9.05;91.09
77603;BME280;66771;52.434;17.056;2023-04-01T08:39:30;98911.80;;;9.14;91.42
77603;BME280;66771;52.434;17.056;2023-04-01T08:45:21;98918.27;;;9.05;90.89
77603;BME280;66771;52.434;17.056;2023-04-01T08:51:26;98921.13;;;9.03;91.26
77603;BME280;66771;52.434;17.056;2023-04-01T08:55:04;98923.01;;;9.11;91.02
77603;BME280;66771;52.434;17.056;2023-04-01T09:00:29;98927.83;;;9.11;90.79
77603;BME280;66771;52.434;17.056;2023-04-01T09:09:25;98939.15;;;9.02;90.24
77603;BME280;66771;52.434;17.056;2023-04-01T09:34:25;98976.39;;;8.92;90.53
77603;BME280;66771;52.434;17.056;2023-04-01T09:40:17;98986.79;;;8.79;90.30
77603;BME280;66771;52.434;17.056;2023-04-01T09:56:52;99010.63;;;8.53;90.87
77603;BME280;66771;52.434;17.056;2023-04-01T10:03:05;99017.80;;;8.36;90.90
77603;BME280;66771;52.434;17.056;2023-04-01T10:25:03;99039.38;;;8.39;90.89
77603;BME280;66771;52.434;17.056;2023-04-01T10:36:58;99046.33;;;8.45;90.11
77603;BME280;66771;52.434;17.056;2023-04-01T10:49:16;99055.95;;;8.22;90.85
77603;BME280;66771;52.434;17.056;2023-04-01T11:28:42;99089.95;;;8.65;90.23
77603;BME280;66771;52.434;17.056;2023-04-01T11:34:37;99099.03;;;8.66;90.49
77603;BME280;66771;52.434;17.056;2023-04-01T11:41:07;99104.89;;;8.64;90.33
77603;BME280;66771;52.434;17.056;2023-04-01T11:44:20;99108.76;;;8.60;89.78
77603;BME280;66771;52.434;17.056;2023-04-01T12:20:52;99148.20;;;8.22;90.64
77603;BME280;66771;52.434;17.056;2023-04-01T12:24:29;99153.04;;;8.20;90.57
77603;BME280;66771;52.434;17.056;2023-04-01T12:26:41;99158.94;;;8.05;89.99
77603;BME280;66771;52.434;17.056;2023-04-01T12:37:39;99167.15;;;7.87;90.78
77603;BME280;66771;52.434;17.056;2023-04-01T12:45:28;99175.04;;;7.79;89.95
77603;BME280;66771;52.434;17.056;2023-04-01T12:56:14;99190.40;;;7.75;90.08
77603;BME280;66771;52.434;17.056;2023-04-01T13:15:52;99208.10;;;8.20;89.81
77603;BME280;66771;52.434;17.056;2023-04-01T13:18:39;99210.42;;;8.22;89.37
77603;BME280;66771;52.434;17.056;2023-04-01T13:21:47;99210.05;;;8.12;87.24
77603;BME280;66771;52.434;17.056;2023-04-01T13:29:27;99220.65;;;8.06;87.82
77603;BME280;66771;52.434;17.056;2023-04-01T13:32:10;99220.30;;;8.10;89.00
77603;BME280;66771;52.434;17.056;2023-04-01T13:42:37;99232.55;;;8.05;86.87
77603;BME280;66771;52.434;17.056;2023-04-01T13:45:38;99227.73;;;8.01;88.74
77603;BME280;66771;52.434;17.056;2023-04-01T13:59:44;99238.10;;;8.15;84.92
77603;BME280;66771;52.434;17.056;2023-04-01T14:11:30;99247.52;;;8.12;85.88
77603;BME280;66771;52.434;17.056;2023-04-01T14:24:45;99249.23;;;8.35;83.36
77603;BME280;66771;52.434;17.056;2023-04-01T14:30:30;99258.44;;;8.46;82.34
77603;BME280;66771;52.434;17.056;2023-04-01T14:33:30;99258.40;;;8.47;82.53
77603;BME280;66771;52.434;17.056;2023-04-01T14:39:06;99267.83;;;8.49;82.06
77603;BME280;66771;52.434;17.056;2023-04-01T14:41:44;99267.84;;;8.41;84.20
77603;BME280;66771;52.434;17.056;2023-04-01T14:50:08;99281.95;;;8.15;83.72
77603;BME280;66771;52.434;17.056;2023-04-01T14:52:38;99284.98;;;8.08;82.66
77603;BME280;66771;52.434;17.056;2023-04-01T14:55:21;99293.40;;;7.99;81.61
77603;BME280;66771;52.434;17.056;2023-04-01T15:03:39;99311.41;;;7.89;81.86
77603;BME280;66771;52.434;17.056;2023-04-01T15:12:29;99322.55;;;7.73;82.50
77603;BME280;66771;52.434;17.056;2023-04-01T15:15:23;99325.02;;;7.67;82.81
77603;BME280;66771;52.434;17.056;2023-04-01T15:18:03;99326.55;;;7.65;82.90
77603;BME280;66771;52.434;17.056;2023-04-01T15:23:27;99329.84;;;7.68;84.31
77603;BME280;66771;52.434;17.056;2023-04-01T15:31:22;99341.33;;;7.65;83.28
77603;BME280;66771;52.434;17.056;2023-04-01T15:39:49;99360.55;;;7.50;83.41
77603;BME280;66771;52.434;17.056;2023-04-01T15:42:34;99362.95;;;7.47;84.22
77603;BME280;66771;52.434;17.056;2023-04-01T15:45:36;99368.44;;;7.46;83.68
77603;BME280;66771;52.434;17.056;2023-04-01T15:59:47;99387.71;;;7.25;83.26
77603;BME280;66771;52.434;17.056;2023-04-01T16:04:55;99391.56;;;7.17;83.06
77603;BME280;66771;52.434;17.056;2023-04-01T16:10:30;99398.88;;;7.13;84.26
77603;BME280;66771;52.434;17.056;2023-04-01T16:15:49;99412.39;;;7.05;83.91
77603;BME280;66771;52.434;17.056;2023-04-01T16:26:19;99424.11;;;6.91;83.68
77603;BME280;66771;52.434;17.056;2023-04-01T16:34:40;99440.86;;;6.98;84.53
77603;BME280;66771;52.434;17.056;2023-04-01T16:37:15;99449.27;;;6.96;83.67
77603;BME280;66771;52.434;17.056;2023-04-01T16:40:33;99454.71;;;6.86;82.86
77603;BME280;66771;52.434;17.056;2023-04-01T16:45:54;99466.65;;;6.72;83.46
77603;BME280;66771;52.434;17.056;2023-04-01T16:48:52;99470.46;;;6.71;84.16
77603;BME280;66771;52.434;17.056;2023-04-01T16:51:22;99479.85;;;6.70;83.93
77603;BME280;66771;52.434;17.056;2023-04-01T16:54:00;99486.98;;;6.66;84.27
77603;BME280;66771;52.434;17.056;2023-04-01T16:56:41;99491.98;;;6.63;84.30
77603;BME280;66771;52.434;17.056;2023-04-01T17:01:50;99501.79;;;6.45;82.26
77603;BME280;66771;52.434;17.056;2023-04-01T17:04:34;99503.73;;;6.36;82.83
77603;BME280;66771;52.434;17.056;2023-04-01T17:15:45;99523.03;;;6.13;82.68
77603;BME280;66771;52.434;17.056;2023-04-01T17:21:02;99533.67;;;6.10;83.39
77603;BME280;66771;52.434;17.056;2023-04-01T17:28:58;99538.45;;;5.91;83.42
77603;BME280;66771;52.434;17.056;2023-04-01T17:42:47;99562.15;;;5.70;82.60
77603;BME280;66771;52.434;17.056;2023-04-01T17:45:42;99567.52;;;5.65;82.91
77603;BME280;66771;52.434;17.056;2023-04-01T17:53:43;99579.81;;;5.56;82.63
77603;BME280;66771;52.434;17.056;2023-04-01T17:58:59;99587.60;;;5.44;82.35
77603;BME280;66771;52.434;17.056;2023-04-01T18:21:54;99594.10;;;5.14;82.68
77603;BME280;66771;52.434;17.056;2023-04-01T18:27:17;99611.98;;;5.11;82.31
77603;BME280;66771;52.434;17.056;2023-04-01T18:29:54;99618.79;;;5.05;82.16
77603;BME280;66771;52.434;17.056;2023-04-01T18:32:35;99621.52;;;5.01;82.61
77603;BME280;66771;52.434;17.056;2023-04-01T18:35:21;99625.88;;;4.98;82.60
77603;BME280;66771;52.434;17.056;2023-04-01T18:38:34;99630.35;;;4.93;82.18
77603;BME280;66771;52.434;17.056;2023-04-01T18:41:14;99639.05;;;4.88;82.79
77603;BME280;66771;52.434;17.056;2023-04-01T18:51:45;99655.75;;;4.76;82.65
77603;BME280;66771;52.434;17.056;2023-04-01T18:54:16;99665.16;;;4.76;83.08
77603;BME280;66771;52.434;17.056;2023-04-01T18:56:48;99667.52;;;4.74;82.79
77603;BME280;66771;52.434;17.056;2023-04-01T18:59:27;99670.61;;;4.72;82.96
77603;BME280;66771;52.434;17.056;2023-04-01T19:02:04;99677.25;;;4.72;83.00
77603;BME280;66771;52.434;17.056;2023-04-01T19:04:56;99680.45;;;4.70;82.69
77603;BME280;66771;52.434;17.056;2023-04-01T19:16:17;99689.79;;;4.55;83.04
77603;BME280;66771;52.434;17.056;2023-04-01T19:19:34;99695.44;;;4.53;82.90
77603;BME280;66771;52.434;17.056;2023-04-01T19:27:44;99705.49;;;4.50;83.27
77603;BME280;66771;52.434;17.056;2023-04-01T19:36:07;99720.40;;;4.40;83.48
77603;BME280;66771;52.434;17.056;2023-04-01T19:38:40;99710.43;;;4.29;83.69
77603;BME280;66771;52.434;17.056;2023-04-01T19:46:49;99731.84;;;4.20;83.78
77603;BME280;66771;52.434;17.056;2023-04-01T19:57:47;99745.20;;;4.06;84.74
77603;BME280;66771;52.434;17.056;2023-04-01T20:14:00;99771.42;;;3.83;85.42
77603;BME280;66771;52.434;17.056;2023-04-01T20:19:40;99783.58;;;3.83;85.26
77603;BME280;66771;52.434;17.056;2023-04-01T20:24:52;99792.83;;;3.74;85.22
77603;BME280;66771;52.434;17.056;2023-04-01T20:28:02;99796.24;;;3.71;85.00
77603;BME280;66771;52.434;17.056;2023-04-01T20:30:38;99803.05;;;3.67;84.46
77603;BME280;66771;52.434;17.056;2023-04-01T20:36:24;99807.02;;;3.66;84.35
77603;BME280;66771;52.434;17.056;2023-04-01T20:42:00;99819.19;;;3.62;84.11
77603;BME280;66771;52.434;17.056;2023-04-01T20:44:43;99824.38;;;3.61;83.90
77603;BME280;66771;52.434;17.056;2023-04-01T20:50:29;99827.18;;;3.62;83.92
77603;BME280;66771;52.434;17.056;2023-04-01T20:53:15;99831.96;;;3.62;83.76
77603;BME280;66771;52.434;17.056;2023-04-01T21:01:00;99838.13;;;3.60;83.27
77603;BME280;66771;52.434;17.056;2023-04-01T21:03:44;99839.31;;;3.61;83.61
77603;BME280;66771;52.434;17.056;2023-04-01T21:09:28;99841.57;;;3.63;83.39
77603;BME280;66771;52.434;17.056;2023-04-01T21:12:24;99847.65;;;3.62;83.70
77603;BME280;66771;52.434;17.056;2023-04-01T21:25:43;99871.00;;;3.58;82.91
77603;BME280;66771;52.434;17.056;2023-04-01T21:40:02;99892.55;;;3.55;83.37
77603;BME280;66771;52.434;17.056;2023-04-01T21:59:08;99912.13;;;3.34;83.03
77603;BME280;66771;52.434;17.056;2023-04-01T22:01:48;99920.59;;;3.35;83.11
77603;BME280;66771;52.434;17.056;2023-04-01T22:04:33;99918.85;;;3.37;83.71
77603;BME280;66771;52.434;17.056;2023-04-01T22:12:23;99928.04;;;3.33;83.58
77603;BME280;66771;52.434;17.056;2023-04-01T22:18:13;99936.23;;;3.32;83.27
77603;BME280;66771;52.434;17.056;2023-04-01T22:20:53;99940.20;;;3.28;83.35
77603;BME280;66771;52.434;17.056;2023-04-01T22:23:32;99946.14;;;3.27;82.97
77603;BME280;66771;52.434;17.056;2023-04-01T22:29:12;99952.38;;;3.20;82.60
77603;BME280;66771;52.434;17.056;2023-04-01T22:31:59;99956.63;;;3.18;82.58
77603;BME280;66771;52.434;17.056;2023-04-01T22:37:27;99961.07;;;3.15;82.75
77603;BME280;66771;52.434;17.056;2023-04-01T22:48:39;99985.44;;;3.02;81.67
77603;BME280;66771;52.434;17.056;2023-04-01T22:56:23;99990.01;;;2.96;82.05
77603;BME280;66771;52.434;17.056;2023-04-01T22:59:19;99992.21;;;2.95;82.40
77603;BME280;66771;52.434;17.056;2023-04-01T23:01:48;99997.44;;;2.91;81.19
77603;BME280;66771;52.434;17.056;2023-04-01T23:04:21;100003.65;;;2.88;81.30
77603;BME280;66771;52.434;17.056;2023-04-01T23:06:58;100006.39;;;2.86;81.57
77603;BME280;66771;52.434;17.056;2023-04-01T23:09:32;100005.13;;;2.84;81.62
77603;BME280;66771;52.434;17.056;2023-04-01T23:12:09;100007.94;;;2.81;81.44
77603;BME280;66771;52.434;17.056;2023-04-01T23:14:43;100010.38;;;2.82;81.57
77603;BME280;66771;52.434;17.056;2023-04-01T23:28:42;100018.65;;;2.77;80.82
77603;BME280;66771;52.434;17.056;2023-04-01T23:31:46;100022.80;;;2.76;81.32
77603;BME280;66771;52.434;17.056;2023-04-01T23:36:42;100026.44;;;2.77;80.95
77603;BME280;66771;52.434;17.056;2023-04-01T23:39:22;100028.77;;;2.77;81.60
77603;BME280;66771;52.434;17.056;2023-04-01T23:41:52;100030.39;;;2.77;81.48
77603;BME280;66771;52.434;17.056;2023-04-01T23:44:20;100036.85;;;2.79;81.38
77603;BME280;66771;52.434;17.056;2023-04-01T23:46:48;100040.68;;;2.80;81.58
77603;BME280;66771;52.434;17.056;2023-04-01T23:49:21;100043.39;;;2.79;81.40
77603;BME280;66771;52.434;17.056;2023-04-01T23:51:56;100045.36;;;2.76;81.06
77603;BME280;66771;52.434;17.056;2023-04-01T23:54:30;100045.20;;;2.76;81.62
77603;BME280;66771;52.434;17.056;2023-04-01T23:56:58;100045.23;;;2.78;81.82
77603;BME280;66771;52.434;17.056;2023-04-01T23:59:31;100043.63;;;2.82;81.58
